ローマ/フィウミチーノ の空港の天気 - METARとTAF

ローマ・レオナルド・ダ・ビンチ国際空港 ( LIRF / FCO ) - イタリア ローマ
飛行場実況気象(Metar)
観測時間01/18 22:20 CET (01/18 21:20 UTC)
風向・風速西南西 6m/s
視程10km以上
天気現象
少しの雲 雲底高度 610m
全天の4割程度の雲 雲底高度 1220m
気温13℃
湿度77%
気圧1017hPa
METARLIRF 182120Z 24011KT 9999 FEW020 SCT040 13/09 Q1017 NOSIG
過去の天気等 Google飛行場航空写真 Wunderground天気予報

過去48時間のMETAR

飛行場予報(TAF)
発表時間: 1/18 18:00 CET (1/18 17:00 UTC)
予報対象時間: 18日19時 CET ~ 20日1時 CET
風向・風速南西 8m/s
視程10km以上
全天の4割程度の雲 雲底高度 910m
19日19時 CET ~ 19日21時 CET に徐々に
風向・風速不定 3m/s
TAF LIRF 181700Z 1818/1924 22015KT 9999 SCT030
BECMG 1918/1920 VRB05KT